Lillis, Kansas
Current Conditions -  °F | °C
As of 11:15 AM on Friday 28 Nov 2014 (Local Time) from KMYZ Reporting Station
Clear Clear  
Wind Chill: 10°   Ceiling: Unl
Heat Index: 10°   Visibility: 10mi
Dew Point:   Wind: 10mph
Humidity: 50%   Direction: 220°SW
Pressure: 29.85"   Gusts: NA
Location:  39.7199°N, 96.4404°W
Report Text: KMYZ 281715Z AUTO 22009KT 10SM CLR 10/00 A2985 RMK AO2
Loading
Personal Weather Stations






























Interactive Weather Map New forecast layout! Learn more

10-Day Weather Forecast

Advertisements
Track Severe Weather on mobile